createdAt,value
2022-10-31T00:01:18.948Z,10.82
2022-10-31T00:03:45.503Z,10.68
2022-10-31T00:06:12.203Z,10.61
2022-10-31T00:08:38.724Z,10.56
2022-10-31T00:11:09.148Z,10.57
2022-10-31T00:13:35.801Z,10.49
2022-10-31T00:16:02.333Z,10.49
2022-10-31T00:18:28.849Z,10.53
2022-10-31T00:21:03.377Z,10.60
2022-10-31T00:23:30.068Z,10.43
2022-10-31T00:26:02.723Z,10.41
2022-10-31T00:28:31.347Z,10.52
2022-10-31T00:31:06.603Z,10.42
2022-10-31T00:33:35.808Z,10.41
2022-10-31T00:36:02.399Z,10.38
2022-10-31T00:38:28.983Z,10.31
2022-10-31T00:40:55.551Z,10.41
2022-10-31T00:43:22.144Z,10.43
2022-10-31T00:45:48.716Z,10.46
2022-10-31T00:48:15.447Z,10.49
2022-10-31T00:50:42.527Z,10.39
2022-10-31T00:53:09.459Z,10.44
2022-10-31T00:55:36.172Z,10.37
2022-10-31T00:58:03.179Z,10.59
2022-10-31T01:00:30.159Z,10.66
2022-10-31T01:02:57.048Z,10.63
2022-10-31T01:05:24.586Z,10.44
2022-10-31T01:07:51.288Z,10.27
2022-10-31T01:10:19.423Z,10.24
2022-10-31T01:12:48.791Z,10.15
2022-10-31T01:15:21.029Z,10.17
2022-10-31T01:17:48.689Z,10.17
2022-10-31T01:20:16.705Z,10.09
2022-10-31T01:22:43.244Z,10.22
2022-10-31T01:25:10.600Z,10.08
2022-10-31T01:27:37.121Z,10.02
2022-10-31T01:30:05.184Z,9.95
2022-10-31T01:32:31.829Z,9.92
2022-10-31T01:34:58.361Z,9.91
2022-10-31T01:37:24.949Z,9.94
2022-10-31T01:39:51.433Z,9.86
2022-10-31T01:42:20.699Z,9.88
2022-10-31T01:45:01.950Z,9.98
2022-10-31T01:47:36.807Z,9.83
2022-10-31T01:50:10.814Z,9.78
2022-10-31T01:52:41.574Z,9.74
2022-10-31T01:55:16.467Z,9.78
2022-10-31T01:57:46.254Z,9.86
2022-10-31T02:00:13.504Z,9.86
2022-10-31T02:02:41.205Z,9.90
2022-10-31T02:05:13.364Z,9.86
2022-10-31T02:08:01.181Z,9.76
2022-10-31T02:10:28.592Z,9.86
2022-10-31T02:12:58.155Z,9.76
2022-10-31T02:15:25.623Z,9.94
2022-10-31T02:17:52.768Z,10.01
2022-10-31T02:20:23.197Z,10.02
2022-10-31T02:22:49.731Z,9.89
2022-10-31T02:25:41.454Z,9.91
2022-10-31T02:30:57.340Z,9.84
2022-10-31T02:33:37.008Z,9.92
2022-10-31T02:36:19.513Z,10.05
2022-10-31T02:39:09.692Z,9.91
2022-10-31T02:42:03.768Z,9.87
2022-10-31T02:44:52.817Z,9.81
2022-10-31T02:47:28.471Z,9.97
2022-10-31T02:50:00.843Z,9.95
2022-10-31T02:52:32.806Z,10.02
2022-10-31T02:55:00.096Z,10.02
2022-10-31T02:57:31.023Z,10.07
2022-10-31T03:00:04.708Z,10.18
2022-10-31T03:03:05.357Z,10.15
2022-10-31T03:06:16.637Z,10.15
2022-10-31T03:08:55.856Z,10.10
2022-10-31T03:11:29.141Z,10.06
2022-10-31T03:14:07.872Z,10.17
2022-10-31T03:16:49.405Z,10.22
2022-10-31T03:19:21.794Z,10.24
2022-10-31T03:22:07.709Z,10.24
2022-10-31T03:24:38.629Z,10.12
2022-10-31T03:27:09.587Z,10.24
2022-10-31T03:29:38.256Z,10.25
2022-10-31T03:32:11.920Z,10.11
2022-10-31T03:34:40.076Z,10.09
2022-10-31T03:37:09.938Z,10.08
2022-10-31T03:39:40.009Z,10.03
2022-10-31T03:42:12.236Z,9.96
2022-10-31T03:44:42.016Z,9.94
2022-10-31T03:47:08.607Z,9.89
2022-10-31T03:49:36.290Z,9.93
2022-10-31T03:52:21.732Z,9.94
2022-10-31T03:54:56.115Z,9.89
2022-10-31T03:57:28.997Z,9.81
2022-10-31T04:00:02.674Z,9.77
2022-10-31T04:02:33.349Z,9.71
2022-10-31T04:05:01.262Z,9.47
2022-10-31T04:07:36.062Z,9.64
2022-10-31T04:10:08.873Z,9.80
2022-10-31T04:12:37.037Z,9.74
2022-10-31T04:15:06.887Z,9.69
2022-10-31T04:17:38.880Z,9.72
2022-10-31T04:20:06.257Z,9.72
2022-10-31T04:22:32.855Z,9.76
2022-10-31T04:24:59.510Z,9.76
2022-10-31T04:27:26.057Z,9.81
2022-10-31T04:29:52.626Z,9.90
2022-10-31T04:32:19.329Z,9.96
2022-10-31T04:34:45.816Z,9.74
2022-10-31T04:37:12.389Z,9.73
2022-10-31T04:39:38.975Z,9.77
2022-10-31T04:42:05.525Z,9.83
2022-10-31T04:44:32.016Z,9.75
2022-10-31T04:46:58.585Z,9.67
2022-10-31T04:49:25.110Z,9.66
2022-10-31T04:51:51.625Z,9.85
2022-10-31T04:54:18.724Z,9.97
2022-10-31T04:56:45.232Z,10.04
2022-10-31T04:59:11.760Z,9.99
2022-10-31T05:01:38.503Z,9.85
2022-10-31T05:04:05.118Z,9.89
2022-10-31T05:06:31.598Z,9.91
2022-10-31T05:08:58.126Z,9.70
2022-10-31T05:11:24.673Z,9.65
2022-10-31T05:13:51.156Z,9.76
2022-10-31T05:16:17.820Z,9.67
2022-10-31T05:18:44.309Z,9.68
2022-10-31T05:21:10.936Z,9.87
2022-10-31T05:23:37.782Z,9.88
2022-10-31T05:26:04.409Z,9.85
2022-10-31T05:28:30.974Z,9.83
2022-10-31T05:30:57.887Z,9.85
2022-10-31T05:33:24.480Z,9.85
2022-10-31T05:35:50.977Z,9.82
2022-10-31T05:38:17.576Z,9.76
2022-10-31T05:40:44.177Z,9.74
2022-10-31T05:43:10.704Z,9.69
2022-10-31T05:45:37.319Z,9.73
2022-10-31T05:48:04.682Z,9.72
2022-10-31T05:50:32.589Z,9.70
2022-10-31T05:53:04.851Z,9.75
2022-10-31T05:55:32.045Z,9.68
2022-10-31T05:57:59.144Z,9.67
2022-10-31T06:00:28.845Z,9.61
2022-10-31T06:03:03.333Z,9.62
2022-10-31T06:05:31.141Z,9.65
2022-10-31T06:07:58.864Z,9.64
2022-10-31T06:10:26.107Z,9.73
2022-10-31T06:12:52.765Z,9.73
2022-10-31T06:15:23.689Z,9.73
2022-10-31T06:18:03.162Z,9.72
2022-10-31T06:20:30.058Z,9.77
2022-10-31T06:22:56.684Z,9.75
2022-10-31T06:25:23.437Z,9.81
2022-10-31T06:27:49.988Z,9.79
2022-10-31T06:30:16.573Z,9.93
2022-10-31T06:32:43.180Z,9.91
2022-10-31T06:35:10.121Z,9.79
2022-10-31T06:37:36.762Z,10.03
2022-10-31T06:40:03.769Z,10.26
2022-10-31T06:42:30.269Z,10.31
2022-10-31T06:44:56.743Z,10.35
2022-10-31T06:47:23.553Z,10.27
2022-10-31T06:49:50.052Z,10.29
2022-10-31T06:52:16.812Z,10.37
2022-10-31T06:54:43.460Z,10.48
2022-10-31T06:57:09.968Z,10.61
2022-10-31T06:59:36.488Z,10.79
2022-10-31T07:02:03.288Z,10.89
2022-10-31T07:04:29.896Z,11.00
2022-10-31T07:06:56.371Z,11.04
2022-10-31T07:09:23.028Z,11.13
2022-10-31T07:11:49.544Z,11.31
2022-10-31T07:14:16.094Z,11.48
2022-10-31T07:16:42.659Z,11.48
2022-10-31T07:19:09.141Z,11.64
2022-10-31T07:21:35.691Z,11.68
2022-10-31T07:24:02.260Z,11.84
2022-10-31T07:26:28.935Z,11.95
2022-10-31T07:28:55.428Z,11.98
2022-10-31T07:31:22.155Z,12.02
2022-10-31T07:33:48.820Z,12.22
2022-10-31T07:36:15.340Z,12.35
2022-10-31T07:38:42.084Z,12.46
2022-10-31T07:41:08.732Z,12.58
2022-10-31T07:43:35.305Z,12.64
2022-10-31T07:46:01.910Z,12.72
2022-10-31T07:48:28.413Z,12.87
2022-10-31T07:50:56.313Z,12.99
2022-10-31T07:53:22.828Z,13.11
2022-10-31T07:55:49.397Z,13.17
2022-10-31T07:58:17.831Z,13.33
2022-10-31T08:00:46.934Z,13.41
2022-10-31T08:03:16.160Z,13.58
2022-10-31T08:05:43.485Z,13.63
2022-10-31T08:08:10.405Z,13.65
2022-10-31T08:10:37.620Z,13.84
2022-10-31T08:13:08.151Z,13.97
2022-10-31T08:15:38.309Z,14.07
2022-10-31T08:18:05.594Z,13.96
2022-10-31T08:20:32.204Z,13.72
2022-10-31T08:23:03.318Z,13.81
2022-10-31T08:25:35.336Z,13.93
2022-10-31T08:28:06.555Z,14.08
2022-10-31T08:30:35.566Z,13.95
2022-10-31T08:33:17.916Z,14.21
2022-10-31T08:35:45.153Z,14.40
2022-10-31T08:38:13.201Z,14.48
2022-10-31T08:40:40.252Z,14.54
2022-10-31T08:43:12.227Z,14.73
2022-10-31T08:45:39.083Z,14.74
2022-10-31T08:48:07.593Z,14.81
2022-10-31T08:50:36.356Z,14.94
2022-10-31T08:53:08.060Z,15.17
2022-10-31T08:55:39.072Z,15.16
2022-10-31T08:58:07.846Z,15.34
2022-10-31T09:00:35.409Z,15.69
2022-10-31T09:03:07.812Z,15.77
2022-10-31T09:05:34.370Z,15.77
2022-10-31T09:08:03.058Z,15.81
2022-10-31T09:10:31.513Z,16.01
2022-10-31T09:13:03.224Z,15.86
2022-10-31T09:15:29.947Z,15.90
2022-10-31T09:17:56.533Z,15.82
2022-10-31T09:20:23.829Z,16.01
2022-10-31T09:23:00.820Z,16.05
2022-10-31T09:25:28.488Z,16.15
2022-10-31T09:28:00.145Z,15.91
2022-10-31T09:30:28.993Z,16.19
2022-10-31T09:32:59.970Z,16.70
2022-10-31T09:35:27.495Z,16.71
2022-10-31T09:37:58.049Z,16.49
2022-10-31T09:40:32.639Z,16.31
2022-10-31T09:43:13.940Z,16.78
2022-10-31T09:45:50.604Z,16.58
2022-10-31T09:48:44.631Z,16.59
2022-10-31T09:51:17.305Z,16.37
2022-10-31T09:53:48.068Z,16.58
2022-10-31T09:56:18.885Z,16.26
2022-10-31T09:58:59.496Z,16.41
2022-10-31T10:01:54.534Z,16.55
2022-10-31T10:04:42.995Z,16.78
2022-10-31T10:07:17.937Z,17.11
2022-10-31T10:09:45.872Z,17.20
2022-10-31T10:12:20.766Z,17.60
2022-10-31T10:15:19.816Z,17.70
2022-10-31T10:17:46.241Z,17.40
2022-10-31T10:20:24.498Z,17.74
2022-10-31T10:23:00.442Z,17.84
2022-10-31T10:25:40.651Z,17.80
2022-10-31T10:28:28.430Z,17.88
2022-10-31T10:31:04.812Z,17.75
2022-10-31T10:33:40.164Z,18.00
2022-10-31T10:36:13.445Z,18.36
2022-10-31T10:39:00.540Z,18.37
2022-10-31T10:41:34.531Z,18.25
2022-10-31T10:44:01.302Z,17.98
2022-10-31T10:47:07.958Z,18.27
2022-10-31T10:49:53.173Z,18.44
2022-10-31T10:55:24.392Z,18.29
2022-10-31T10:57:58.393Z,18.28
2022-10-31T11:00:32.116Z,18.29
2022-10-31T11:02:59.244Z,18.23
2022-10-31T11:05:29.537Z,18.08
2022-10-31T11:07:56.123Z,17.89
2022-10-31T11:10:23.169Z,17.96
2022-10-31T11:13:24.480Z,17.88
2022-10-31T11:16:13.355Z,18.25
2022-10-31T11:18:46.367Z,18.29
2022-10-31T11:21:23.256Z,18.65
2022-10-31T11:23:49.767Z,18.79
2022-10-31T11:26:22.406Z,19.01
2022-10-31T11:28:59.734Z,18.89
2022-10-31T11:31:28.028Z,18.86
2022-10-31T11:34:03.673Z,18.76
2022-10-31T11:36:43.204Z,18.38
2022-10-31T11:39:18.675Z,18.28
2022-10-31T11:41:46.269Z,18.25
2022-10-31T11:44:29.326Z,18.22
2022-10-31T11:47:04.359Z,18.25
2022-10-31T11:49:39.647Z,18.25
2022-10-31T11:52:25.392Z,18.28
2022-10-31T11:55:03.223Z,18.36
2022-10-31T11:57:43.104Z,18.55
2022-10-31T12:00:30.874Z,18.57
2022-10-31T12:03:34.578Z,18.62
2022-10-31T12:06:06.500Z,18.65
2022-10-31T12:08:36.880Z,18.79
2022-10-31T12:11:36.685Z,18.77
2022-10-31T12:14:24.809Z,18.83
2022-10-31T12:17:17.209Z,18.70
2022-10-31T12:19:57.623Z,19.26
2022-10-31T12:22:52.967Z,19.31
2022-10-31T12:25:25.476Z,19.51
2022-10-31T12:28:06.516Z,19.60
2022-10-31T12:30:58.703Z,19.58
2022-10-31T12:34:02.822Z,19.64
2022-10-31T12:37:01.141Z,19.52
2022-10-31T12:40:15.656Z,19.96
2022-10-31T12:43:18.981Z,20.14
2022-10-31T12:45:59.876Z,19.90
2022-10-31T12:48:38.401Z,19.66
2022-10-31T12:51:10.917Z,19.28
2022-10-31T12:53:55.106Z,19.34
2022-10-31T12:56:48.468Z,19.44
2022-10-31T12:59:30.223Z,19.39
2022-10-31T13:02:00.006Z,19.51
2022-10-31T13:04:52.236Z,19.68
2022-10-31T13:07:58.622Z,19.70
2022-10-31T13:10:48.956Z,19.74
2022-10-31T13:13:25.721Z,20.20
2022-10-31T13:15:57.689Z,19.94
2022-10-31T13:18:30.516Z,19.91
2022-10-31T13:21:00.170Z,19.73
2022-10-31T13:23:51.766Z,19.54
2022-10-31T13:26:37.758Z,19.45
2022-10-31T13:29:24.806Z,19.27
2022-10-31T13:31:53.832Z,19.22
2022-10-31T13:34:36.416Z,19.25
2022-10-31T13:37:15.210Z,19.07
2022-10-31T13:39:52.831Z,19.11
2022-10-31T13:42:51.726Z,19.03
2022-10-31T13:45:21.622Z,19.08
2022-10-31T13:48:16.078Z,19.03
2022-10-31T13:50:44.541Z,18.98
2022-10-31T13:53:23.195Z,18.99
2022-10-31T13:56:03.617Z,18.98
2022-10-31T13:58:32.605Z,19.12
2022-10-31T14:01:11.875Z,19.08
2022-10-31T14:06:52.144Z,19.14
2022-10-31T14:09:54.387Z,19.12
2022-10-31T14:12:37.487Z,19.16
2022-10-31T14:15:28.740Z,19.02
2022-10-31T14:18:03.635Z,19.12
2022-10-31T14:20:41.880Z,18.89
2022-10-31T14:23:27.576Z,18.76
2022-10-31T14:25:54.107Z,18.68
2022-10-31T14:28:47.831Z,18.72
2022-10-31T14:31:42.087Z,18.81
2022-10-31T14:34:27.577Z,18.86
2022-10-31T14:36:59.935Z,18.93
2022-10-31T14:39:38.634Z,18.73
2022-10-31T14:42:30.195Z,18.51
2022-10-31T14:45:08.472Z,18.47
2022-10-31T14:47:53.430Z,18.44
2022-10-31T14:50:32.915Z,18.42
2022-10-31T14:53:02.909Z,18.40
2022-10-31T14:55:30.453Z,18.32
2022-10-31T14:58:02.363Z,18.22
2022-10-31T15:00:32.144Z,18.15
2022-10-31T15:03:25.839Z,17.96
2022-10-31T15:05:59.289Z,17.83
2022-10-31T15:08:39.984Z,17.66
2022-10-31T15:11:25.637Z,17.71
2022-10-31T15:13:53.766Z,17.73
2022-10-31T15:16:24.111Z,17.55
2022-10-31T15:18:59.901Z,17.42
2022-10-31T15:21:29.322Z,17.46
2022-10-31T15:23:58.908Z,17.15
2022-10-31T15:26:33.676Z,17.22
2022-10-31T15:29:02.998Z,17.30
2022-10-31T15:31:31.947Z,17.36
2022-10-31T15:34:05.198Z,17.25
2022-10-31T15:36:35.699Z,17.16
2022-10-31T15:39:04.165Z,16.95
2022-10-31T15:41:39.503Z,16.65
2022-10-31T15:44:16.093Z,16.43
2022-10-31T15:46:42.924Z,16.25
2022-10-31T15:49:40.972Z,16.16
2022-10-31T15:52:42.449Z,15.95
2022-10-31T15:55:11.787Z,15.92
2022-10-31T15:57:44.905Z,15.80
2022-10-31T16:00:24.140Z,15.65
2022-10-31T16:02:50.960Z,15.38
2022-10-31T16:05:20.236Z,15.33
2022-10-31T16:07:51.434Z,15.04
2022-10-31T16:10:26.913Z,14.90
2022-10-31T16:12:54.439Z,14.87
2022-10-31T16:15:22.411Z,14.86
2022-10-31T16:17:51.744Z,14.92
2022-10-31T16:20:28.492Z,14.97
2022-10-31T16:22:58.182Z,14.87
2022-10-31T16:25:29.661Z,14.75
2022-10-31T16:28:04.483Z,14.69
2022-10-31T16:30:45.456Z,14.75
2022-10-31T16:33:30.118Z,14.67
2022-10-31T16:36:09.491Z,14.51
2022-10-31T16:38:45.204Z,14.41
2022-10-31T16:41:11.748Z,14.37
2022-10-31T16:43:38.305Z,14.29
2022-10-31T16:46:04.950Z,14.13
2022-10-31T16:48:31.904Z,14.01
2022-10-31T16:50:58.417Z,14.01
2022-10-31T16:53:25.594Z,13.90
2022-10-31T16:55:56.666Z,14.04
2022-10-31T16:58:30.689Z,13.89
2022-10-31T17:00:58.031Z,13.73
2022-10-31T17:03:24.604Z,13.56
2022-10-31T17:05:51.519Z,13.48
2022-10-31T17:08:18.493Z,13.21
2022-10-31T17:10:48.148Z,13.19
2022-10-31T17:13:19.698Z,13.43
2022-10-31T17:15:53.341Z,13.95
2022-10-31T17:18:24.407Z,14.05
2022-10-31T17:20:59.940Z,14.05
2022-10-31T17:23:27.476Z,13.94
2022-10-31T17:25:54.159Z,14.01
2022-10-31T17:28:21.016Z,13.95
2022-10-31T17:30:48.075Z,13.86
2022-10-31T17:33:16.876Z,13.87
2022-10-31T17:35:45.084Z,13.84
2022-10-31T17:38:12.147Z,13.79
2022-10-31T17:40:40.362Z,13.80
2022-10-31T17:43:07.236Z,13.92
2022-10-31T17:45:33.750Z,14.01
2022-10-31T17:48:00.288Z,14.03
2022-10-31T17:50:27.567Z,13.90
2022-10-31T17:52:54.068Z,14.06
2022-10-31T17:55:21.091Z,14.19
2022-10-31T17:57:47.809Z,14.29
2022-10-31T18:00:17.701Z,14.30
2022-10-31T18:02:44.508Z,14.29
2022-10-31T18:05:11.555Z,14.36
2022-10-31T18:07:38.111Z,14.52
2022-10-31T18:10:05.702Z,14.55
2022-10-31T18:12:32.511Z,14.41
2022-10-31T18:14:59.253Z,14.34
2022-10-31T18:17:25.844Z,14.24
2022-10-31T18:19:52.379Z,14.25
2022-10-31T18:22:18.880Z,14.17
2022-10-31T18:24:45.415Z,14.14
2022-10-31T18:27:12.136Z,14.09
2022-10-31T18:29:38.626Z,14.03
2022-10-31T18:32:09.557Z,14.12
2022-10-31T18:34:36.825Z,14.00
2022-10-31T18:37:03.690Z,13.98
2022-10-31T18:39:30.289Z,13.81
2022-10-31T18:41:57.381Z,13.98
2022-10-31T18:44:24.196Z,13.98
2022-10-31T18:46:50.699Z,13.80
2022-10-31T18:49:22.608Z,13.80
2022-10-31T18:51:50.708Z,13.79
2022-10-31T18:54:17.703Z,13.78
2022-10-31T18:56:44.855Z,13.85
2022-10-31T18:59:11.932Z,13.79
2022-10-31T19:01:39.037Z,13.72
2022-10-31T19:04:06.123Z,13.72
2022-10-31T19:06:32.640Z,13.67
2022-10-31T19:09:01.148Z,13.50
2022-10-31T19:13:50.386Z,13.41
2022-10-31T19:16:18.023Z,13.32
2022-10-31T19:18:44.968Z,13.36
2022-10-31T19:21:17.892Z,13.27
2022-10-31T19:23:45.356Z,13.27
2022-10-31T19:26:12.789Z,13.14
2022-10-31T19:28:41.095Z,13.02
2022-10-31T19:31:09.066Z,12.84
2022-10-31T19:33:36.528Z,12.85
2022-10-31T19:36:09.705Z,12.80
2022-10-31T19:38:41.562Z,12.71
2022-10-31T19:41:11.604Z,12.68
2022-10-31T19:43:38.783Z,12.63
2022-10-31T19:46:06.357Z,12.61
2022-10-31T19:48:36.603Z,12.64
2022-10-31T19:51:06.384Z,12.59
2022-10-31T19:53:33.890Z,12.71
2022-10-31T19:56:01.219Z,12.45
2022-10-31T19:58:28.529Z,12.27
2022-10-31T20:00:55.737Z,12.12
2022-10-31T20:03:22.887Z,12.06
2022-10-31T20:05:50.642Z,12.06
2022-10-31T20:08:19.915Z,12.13
2022-10-31T20:10:57.219Z,12.23
2022-10-31T20:13:24.928Z,12.17
2022-10-31T20:15:52.348Z,12.12
2022-10-31T20:18:19.086Z,12.12
2022-10-31T20:20:45.822Z,12.05
2022-10-31T20:23:12.372Z,12.00
2022-10-31T20:25:47.325Z,11.93
2022-10-31T20:28:13.851Z,11.90
2022-10-31T20:30:40.351Z,12.02
2022-10-31T20:33:07.473Z,11.85
2022-10-31T20:35:38.900Z,11.90
2022-10-31T20:38:05.543Z,12.03
2022-10-31T20:40:33.089Z,12.08
2022-10-31T20:43:01.196Z,12.02
2022-10-31T20:45:28.684Z,12.08
2022-10-31T20:47:55.282Z,12.00
2022-10-31T20:50:22.271Z,11.99
2022-10-31T20:52:48.983Z,11.92
2022-10-31T20:55:16.388Z,11.89
2022-10-31T20:57:43.136Z,11.94
2022-10-31T21:00:14.049Z,12.05
2022-10-31T21:02:44.214Z,12.07
2022-10-31T21:05:12.404Z,11.96
2022-10-31T21:07:42.353Z,11.76
2022-10-31T21:10:14.834Z,11.81
2022-10-31T21:12:43.223Z,11.81
2022-10-31T21:15:11.337Z,11.75
2022-10-31T21:17:38.420Z,11.78
2022-10-31T21:20:07.279Z,11.93
2022-10-31T21:22:34.192Z,11.87
2022-10-31T21:25:01.005Z,11.84
2022-10-31T21:27:27.810Z,11.78
2022-10-31T21:29:54.313Z,11.74
2022-10-31T21:32:21.084Z,11.67
2022-10-31T21:34:50.090Z,11.63
2022-10-31T21:37:16.952Z,11.59
2022-10-31T21:39:48.135Z,11.57
2022-10-31T21:42:20.532Z,11.54
2022-10-31T21:44:48.928Z,11.56
2022-10-31T21:47:15.865Z,11.44
2022-10-31T21:49:42.540Z,11.43
2022-10-31T21:52:09.496Z,11.43
2022-10-31T21:54:37.342Z,11.44
2022-10-31T21:57:04.116Z,11.39
2022-10-31T21:59:31.238Z,11.44
2022-10-31T22:01:59.782Z,11.48
2022-10-31T22:04:27.242Z,11.45
2022-10-31T22:06:54.186Z,11.66
2022-10-31T22:09:20.928Z,11.69
2022-10-31T22:11:47.672Z,11.68
2022-10-31T22:14:15.086Z,11.73
2022-10-31T22:16:42.247Z,11.71
2022-10-31T22:19:11.895Z,11.67
2022-10-31T22:21:46.879Z,11.79
2022-10-31T22:24:14.535Z,11.68
2022-10-31T22:26:41.194Z,11.68
2022-10-31T22:29:12.278Z,11.76
2022-10-31T22:31:44.206Z,11.98
2022-10-31T22:34:11.803Z,12.03
2022-10-31T22:36:38.875Z,12.02
2022-10-31T22:39:06.179Z,11.88
2022-10-31T22:41:34.976Z,11.91
2022-10-31T22:44:03.052Z,11.85
2022-10-31T22:46:31.547Z,11.70
2022-10-31T22:49:04.608Z,11.83
2022-10-31T22:51:37.789Z,11.87
2022-10-31T22:54:05.565Z,11.88
2022-10-31T22:56:34.145Z,12.01
2022-10-31T22:59:01.536Z,12.07
2022-10-31T23:01:31.909Z,11.96
2022-10-31T23:03:59.117Z,11.95
2022-10-31T23:06:30.172Z,12.03
2022-10-31T23:08:57.471Z,12.08
2022-10-31T23:11:48.704Z,12.08
2022-10-31T23:14:20.763Z,11.99
2022-10-31T23:16:51.550Z,12.06
2022-10-31T23:19:22.859Z,11.93
2022-10-31T23:21:56.169Z,11.86
2022-10-31T23:24:29.110Z,12.03
2022-10-31T23:27:09.148Z,12.07
2022-10-31T23:29:50.431Z,12.12
2022-10-31T23:32:21.101Z,12.19
2022-10-31T23:34:50.455Z,12.08
2022-10-31T23:37:18.742Z,12.17
2022-10-31T23:39:45.780Z,12.15
2022-10-31T23:42:13.895Z,12.11
2022-10-31T23:44:40.692Z,12.16
2022-10-31T23:47:07.642Z,12.19
2022-10-31T23:49:34.701Z,12.22
2022-10-31T23:52:02.075Z,12.14
2022-10-31T23:54:28.736Z,12.18
2022-10-31T23:56:55.981Z,12.15
2022-10-31T23:59:22.919Z,12.16
